createdAt,value
2019-02-22T00:00:48.544Z,9.33
2019-02-22T00:03:18.835Z,8.67
2019-02-22T00:05:49.165Z,9.33
2019-02-22T00:08:19.899Z,9.90
2019-02-22T00:10:50.473Z,9.27
2019-02-22T00:13:20.751Z,9.40
2019-02-22T00:15:51.395Z,9.63
2019-02-22T00:18:21.741Z,9.67
2019-02-22T00:20:52.059Z,9.03
2019-02-22T00:23:22.423Z,9.50
2019-02-22T00:25:52.990Z,10.13
2019-02-22T00:28:23.298Z,10.70
2019-02-22T00:30:53.677Z,11.13
2019-02-22T00:33:23.951Z,11.43
2019-02-22T00:35:54.641Z,10.93
2019-02-22T00:38:27.087Z,10.67
2019-02-22T00:40:57.488Z,11.03
2019-02-22T00:43:28.081Z,9.83
2019-02-22T00:45:58.769Z,9.13
2019-02-22T00:48:29.070Z,9.47
2019-02-22T00:50:59.619Z,9.87
2019-02-22T00:53:31.384Z,10.00
2019-02-22T00:56:01.707Z,10.10
2019-02-22T00:58:32.008Z,10.93
2019-02-22T01:01:03.946Z,9.87
2019-02-22T01:03:34.243Z,10.03
2019-02-22T01:06:04.953Z,11.00
2019-02-22T01:08:35.235Z,10.53
2019-02-22T01:11:05.619Z,10.80
2019-02-22T01:13:36.310Z,10.33
2019-02-22T01:16:06.676Z,10.73
2019-02-22T01:18:37.486Z,11.33
2019-02-22T01:21:08.044Z,10.93
2019-02-22T01:23:38.330Z,10.90
2019-02-22T01:26:08.627Z,10.97
2019-02-22T01:28:39.371Z,10.10
2019-02-22T01:31:09.878Z,10.80
2019-02-22T01:33:40.164Z,10.77
2019-02-22T01:36:11.057Z,10.47
2019-02-22T01:38:41.353Z,10.03
2019-02-22T01:41:12.041Z,10.70
2019-02-22T01:43:42.421Z,11.67
2019-02-22T01:46:12.736Z,9.83
2019-02-22T01:48:43.413Z,10.37
2019-02-22T01:51:13.855Z,10.73
2019-02-22T01:53:44.147Z,10.27
2019-02-22T01:56:14.638Z,10.60
2019-02-22T01:58:48.771Z,10.30
2019-02-22T02:01:17.412Z,10.80
2019-02-22T02:03:48.009Z,10.83
2019-02-22T02:06:18.696Z,10.30
2019-02-22T02:08:49.946Z,10.10
2019-02-22T02:11:20.502Z,11.30
2019-02-22T02:13:50.802Z,10.27
2019-02-22T02:16:21.637Z,10.60
2019-02-22T02:18:52.007Z,10.60
2019-02-22T02:21:22.325Z,11.23
2019-02-22T02:23:53.074Z,9.83
2019-02-22T02:26:24.763Z,10.30
2019-02-22T02:28:55.050Z,10.30
2019-02-22T02:31:25.451Z,10.20
2019-02-22T02:33:56.118Z,10.23
2019-02-22T02:36:26.430Z,9.60
2019-02-22T02:38:56.736Z,10.43
2019-02-22T02:41:27.189Z,10.30
2019-02-22T02:43:57.926Z,9.60
2019-02-22T02:46:28.576Z,9.00
2019-02-22T02:48:58.859Z,10.17
2019-02-22T02:51:29.223Z,10.40
2019-02-22T02:53:59.847Z,10.77
2019-02-22T02:56:30.257Z,10.83
2019-02-22T02:59:00.675Z,10.63
2019-02-22T03:01:31.545Z,11.30
2019-02-22T03:04:01.935Z,10.00
2019-02-22T03:06:41.320Z,10.00
2019-02-22T03:09:11.935Z,11.03
2019-02-22T03:11:42.505Z,11.50
2019-02-22T03:14:13.185Z,10.93
2019-02-22T03:16:43.757Z,11.57
2019-02-22T03:19:14.042Z,11.67
2019-02-22T03:21:44.627Z,11.30
2019-02-22T03:24:15.893Z,11.93
2019-02-22T03:26:46.210Z,10.27
2019-02-22T03:29:16.882Z,12.00
2019-02-22T03:31:47.394Z,11.20
2019-02-22T03:34:18.661Z,11.57
2019-02-22T03:36:49.321Z,11.07
2019-02-22T03:39:20.828Z,12.00
2019-02-22T03:41:51.152Z,12.30
2019-02-22T03:44:21.789Z,11.20
2019-02-22T03:46:52.124Z,11.87
2019-02-22T03:49:23.553Z,10.47
2019-02-22T03:51:53.898Z,11.23
2019-02-22T03:54:24.164Z,11.57
2019-02-22T03:56:54.813Z,12.67
2019-02-22T03:59:25.678Z,11.83
2019-02-22T04:01:56.004Z,11.40
2019-02-22T04:04:26.862Z,10.47
2019-02-22T04:06:57.702Z,11.70
2019-02-22T04:09:27.998Z,11.37
2019-02-22T04:11:58.408Z,11.63
2019-02-22T04:14:29.085Z,11.27
2019-02-22T04:16:59.597Z,12.97
2019-02-22T04:19:29.890Z,11.43
2019-02-22T04:22:00.599Z,11.33
2019-02-22T04:24:30.985Z,11.67
2019-02-22T04:27:01.569Z,11.30
2019-02-22T04:29:32.064Z,12.80
2019-02-22T04:32:02.553Z,11.27
2019-02-22T04:34:32.818Z,11.80
2019-02-22T04:37:03.496Z,11.80
2019-02-22T04:39:34.166Z,10.93
2019-02-22T04:42:04.544Z,12.13
2019-02-22T04:44:35.127Z,12.40
2019-02-22T04:47:05.643Z,11.97
2019-02-22T04:49:36.220Z,12.07
2019-02-22T04:52:06.704Z,12.10
2019-02-22T04:54:37.006Z,12.87
2019-02-22T04:57:07.866Z,12.87
2019-02-22T04:59:38.330Z,11.63
2019-02-22T05:02:08.828Z,11.97
2019-02-22T05:04:39.376Z,11.40
2019-02-22T05:07:10.196Z,13.00
2019-02-22T05:09:40.485Z,12.50
2019-02-22T05:12:11.432Z,17.47
2019-02-22T05:14:42.003Z,17.80
2019-02-22T05:17:12.380Z,18.17
2019-02-22T05:19:42.661Z,20.43
2019-02-22T05:22:14.501Z,19.90
2019-02-22T05:24:45.249Z,18.00
2019-02-22T05:27:16.025Z,17.97
2019-02-22T05:29:46.304Z,20.13
2019-02-22T05:32:16.935Z,19.57
2019-02-22T05:34:47.572Z,23.07
2019-02-22T05:37:17.913Z,16.93
2019-02-22T05:39:48.228Z,21.53
2019-02-22T05:42:22.981Z,20.10
2019-02-22T05:44:50.897Z,20.03
2019-02-22T05:47:21.513Z,18.30
2019-02-22T05:49:52.199Z,19.27
2019-02-22T05:52:22.725Z,21.03
2019-02-22T05:54:53.282Z,19.70
2019-02-22T05:57:23.578Z,20.70
2019-02-22T05:59:53.872Z,19.80
2019-02-22T06:02:24.463Z,21.30
2019-02-22T06:04:54.739Z,21.40
2019-02-22T06:07:25.071Z,22.90
2019-02-22T06:09:55.724Z,20.57
2019-02-22T06:12:34.104Z,21.83
2019-02-22T06:14:58.413Z,21.93
2019-02-22T06:17:29.238Z,23.47
2019-02-22T06:19:59.625Z,18.80
2019-02-22T06:22:30.969Z,19.87
2019-02-22T06:25:01.883Z,19.93
2019-02-22T06:27:32.470Z,20.20
2019-02-22T06:30:03.229Z,25.23
2019-02-22T06:32:33.764Z,20.33
2019-02-22T06:35:04.227Z,23.33
2019-02-22T06:37:34.648Z,24.37
2019-02-22T06:40:05.738Z,24.93
2019-02-22T06:42:45.262Z,22.80
2019-02-22T06:45:09.330Z,18.97
2019-02-22T06:47:39.836Z,18.03
2019-02-22T06:50:10.110Z,15.27
2019-02-22T06:52:40.679Z,12.50
2019-02-22T06:55:11.302Z,12.70
2019-02-22T06:57:41.719Z,11.67
2019-02-22T07:00:12.443Z,11.60
2019-02-22T07:02:42.833Z,12.17
2019-02-22T07:05:13.312Z,11.37
2019-02-22T07:07:43.979Z,11.67
2019-02-22T07:10:14.262Z,11.30
2019-02-22T07:12:56.573Z,11.77
2019-02-22T07:15:20.758Z,12.63
2019-02-22T07:17:52.070Z,12.13
2019-02-22T07:20:22.408Z,13.80
2019-02-22T07:22:53.010Z,12.07
2019-02-22T07:25:23.386Z,12.77
2019-02-22T07:27:53.742Z,9.87
2019-02-22T07:30:24.209Z,11.57
2019-02-22T07:32:55.097Z,12.60
2019-02-22T07:35:25.721Z,11.30
2019-02-22T07:37:56.139Z,11.07
2019-02-22T07:40:26.589Z,12.23
2019-02-22T07:43:07.541Z,11.90
2019-02-22T07:45:29.366Z,11.70
2019-02-22T07:47:59.807Z,14.00
2019-02-22T07:50:30.522Z,13.53
2019-02-22T07:53:00.834Z,14.00
2019-02-22T07:55:31.112Z,13.03
2019-02-22T07:58:01.845Z,13.20
2019-02-22T08:00:32.356Z,13.80
2019-02-22T08:03:03.143Z,13.03
2019-02-22T08:05:33.484Z,14.90
2019-02-22T08:08:04.007Z,12.97
2019-02-22T08:10:34.662Z,11.37
2019-02-22T08:13:04.997Z,12.40
2019-02-22T08:15:35.475Z,11.70
2019-02-22T08:18:06.090Z,12.80
2019-02-22T08:20:36.503Z,12.27
2019-02-22T08:23:06.885Z,11.00
2019-02-22T08:25:37.263Z,13.53
2019-02-22T08:28:08.065Z,12.97
2019-02-22T08:30:38.422Z,10.53
2019-02-22T08:33:09.087Z,10.77
2019-02-22T08:35:39.908Z,11.47
2019-02-22T08:38:10.327Z,12.60
2019-02-22T08:40:40.771Z,12.90
2019-02-22T08:43:11.482Z,11.97
2019-02-22T08:45:41.755Z,12.87
2019-02-22T08:48:12.588Z,13.60
2019-02-22T08:50:43.242Z,10.93
2019-02-22T08:53:13.782Z,10.30
2019-02-22T08:55:44.075Z,12.47
2019-02-22T08:58:15.019Z,13.00
2019-02-22T09:00:45.520Z,12.10
2019-02-22T09:03:16.073Z,12.43
2019-02-22T09:05:46.745Z,11.73
2019-02-22T09:08:17.278Z,11.70
2019-02-22T09:10:59.660Z,13.10
2019-02-22T09:13:19.904Z,14.40
2019-02-22T09:15:50.263Z,14.03
2019-02-22T09:18:20.868Z,12.03
2019-02-22T09:20:51.288Z,14.43
2019-02-22T09:23:21.730Z,14.10
2019-02-22T09:25:52.295Z,12.93
2019-02-22T09:28:23.122Z,12.47
2019-02-22T09:30:53.425Z,12.93
2019-02-22T09:33:24.149Z,11.40
2019-02-22T09:35:54.819Z,11.77
2019-02-22T09:38:25.165Z,11.33
2019-02-22T09:40:55.640Z,11.83
2019-02-22T09:43:25.986Z,12.20
2019-02-22T09:45:56.638Z,12.13
2019-02-22T09:48:27.381Z,11.30
2019-02-22T09:50:57.737Z,12.60
2019-02-22T09:53:29.795Z,12.13
2019-02-22T09:56:00.180Z,11.53
2019-02-22T09:58:30.571Z,11.40
2019-02-22T10:01:01.050Z,12.40
2019-02-22T10:03:31.738Z,12.20
2019-02-22T10:06:02.057Z,10.40
2019-02-22T10:08:32.398Z,10.70
2019-02-22T10:11:02.932Z,11.70
2019-02-22T10:13:33.654Z,11.37
2019-02-22T10:16:04.482Z,8.73
2019-02-22T10:18:35.253Z,11.97
2019-02-22T10:21:05.714Z,11.13
2019-02-22T10:23:36.372Z,12.53
2019-02-22T10:26:06.645Z,14.17
2019-02-22T10:28:36.971Z,12.77
2019-02-22T10:31:07.606Z,13.37
2019-02-22T10:33:37.995Z,12.37
2019-02-22T10:36:08.254Z,11.97
2019-02-22T10:38:38.953Z,12.27
2019-02-22T10:41:09.478Z,13.13
2019-02-22T10:43:40.211Z,11.80
2019-02-22T10:46:10.579Z,12.00
2019-02-22T10:48:41.034Z,12.03
2019-02-22T10:51:11.581Z,12.77
2019-02-22T10:53:41.890Z,11.83
2019-02-22T10:56:12.188Z,11.77
2019-02-22T10:58:42.789Z,11.83
2019-02-22T11:01:13.220Z,13.23
2019-02-22T11:03:43.593Z,11.80
2019-02-22T11:06:14.236Z,11.03
2019-02-22T11:08:44.893Z,12.53
2019-02-22T11:11:15.169Z,9.80
2019-02-22T11:13:46.161Z,11.23
2019-02-22T11:16:16.514Z,11.70
2019-02-22T11:18:47.154Z,10.43
2019-02-22T11:21:17.566Z,11.47
2019-02-22T11:23:48.005Z,11.00
2019-02-22T11:26:18.812Z,10.83
2019-02-22T11:32:13.240Z,9.93
2019-02-22T11:34:45.059Z,12.23
2019-02-22T11:37:15.663Z,12.03
2019-02-22T11:39:45.975Z,10.80
2019-02-22T11:42:16.435Z,10.77
2019-02-22T11:44:47.096Z,10.10
2019-02-22T11:47:17.375Z,8.83
2019-02-22T11:49:48.227Z,9.27
2019-02-22T11:52:18.587Z,9.73
2019-02-22T11:54:49.332Z,8.77
2019-02-22T11:57:19.765Z,9.43
2019-02-22T12:02:55.768Z,8.40
2019-02-22T12:05:26.535Z,6.73
2019-02-22T12:07:56.876Z,7.27
2019-02-22T12:10:27.503Z,8.00
2019-02-22T12:12:58.006Z,13.53
2019-02-22T12:15:28.320Z,17.33
2019-02-22T12:17:58.723Z,14.57
2019-02-22T12:20:29.592Z,28.23
2019-02-22T12:23:00.119Z,21.33
2019-02-22T12:25:30.789Z,9.87
2019-02-22T12:28:01.064Z,8.50
2019-02-22T12:30:31.564Z,10.67
2019-02-22T12:33:02.093Z,10.50
2019-02-22T12:35:32.731Z,9.20
2019-02-22T12:38:03.011Z,26.63
2019-02-22T12:40:33.515Z,10.53
2019-02-22T12:43:04.111Z,19.00
2019-02-22T12:45:34.445Z,17.90
2019-02-22T12:48:05.017Z,5.63
2019-02-22T12:50:35.805Z,5.10
2019-02-22T12:53:06.104Z,5.07
2019-02-22T12:55:36.739Z,7.33
2019-02-22T12:58:07.189Z,7.17
2019-02-22T13:00:37.437Z,5.23
2019-02-22T13:03:07.960Z,5.27
2019-02-22T13:05:38.605Z,4.87
2019-02-22T13:08:09.110Z,3.60
2019-02-22T13:10:39.382Z,3.87
2019-02-22T13:13:09.938Z,4.00
2019-02-22T13:15:40.191Z,4.73
2019-02-22T13:18:10.500Z,4.40
2019-02-22T13:20:41.379Z,4.40
2019-02-22T13:23:11.807Z,4.63
2019-02-22T13:25:42.445Z,4.03
2019-02-22T13:28:12.772Z,4.60
2019-02-22T13:30:43.083Z,4.63
2019-02-22T13:33:13.570Z,5.60
2019-02-22T13:35:43.844Z,6.43
2019-02-22T13:38:14.158Z,7.00
2019-02-22T13:40:44.815Z,8.77
2019-02-22T13:43:15.186Z,9.73
2019-02-22T13:45:45.540Z,9.37
2019-02-22T13:48:17.308Z,9.33
2019-02-22T13:50:48.079Z,6.47
2019-02-22T13:53:18.305Z,5.20
2019-02-22T13:55:49.116Z,5.90
2019-02-22T13:58:19.435Z,6.10
2019-02-22T14:00:50.102Z,6.20
2019-02-22T14:03:20.556Z,3.47
2019-02-22T14:05:50.904Z,3.40
2019-02-22T14:08:21.551Z,5.60
2019-02-22T14:10:51.948Z,4.43
2019-02-22T14:13:22.205Z,6.70
2019-02-22T14:15:52.585Z,4.30
2019-02-22T14:18:23.192Z,4.07
2019-02-22T14:20:53.466Z,5.03
2019-02-22T14:23:23.810Z,3.67
2019-02-22T14:25:54.531Z,4.63
2019-02-22T14:28:24.810Z,5.30
2019-02-22T14:30:55.526Z,4.40
2019-02-22T14:33:25.789Z,6.37
2019-02-22T14:35:56.492Z,5.47
2019-02-22T14:38:28.257Z,5.37
2019-02-22T14:40:58.540Z,5.43
2019-02-22T14:43:28.869Z,4.67
2019-02-22T14:45:59.706Z,4.00
2019-02-22T14:48:29.973Z,4.90
2019-02-22T14:51:00.646Z,3.80
2019-02-22T14:53:31.297Z,5.10
2019-02-22T14:56:01.911Z,3.37
2019-02-22T14:58:32.187Z,3.10
2019-02-22T15:01:02.918Z,4.07
2019-02-22T15:03:33.325Z,4.03
2019-02-22T15:06:04.205Z,11.37
2019-02-22T15:08:34.473Z,4.67
2019-02-22T15:11:04.782Z,4.67
2019-02-22T15:13:35.328Z,4.23
2019-02-22T15:16:20.954Z,5.07
2019-02-22T15:18:51.278Z,5.30
2019-02-22T15:21:22.134Z,9.00
2019-02-22T15:23:52.454Z,10.57
2019-02-22T15:26:22.890Z,10.47
2019-02-22T15:28:53.669Z,10.50
2019-02-22T15:31:25.684Z,11.13
2019-02-22T15:33:57.378Z,9.47
2019-02-22T15:36:27.762Z,10.27
2019-02-22T15:38:58.131Z,11.30
2019-02-22T15:41:29.027Z,9.53
2019-02-22T15:43:59.466Z,10.10
2019-02-22T15:46:29.843Z,10.30
2019-02-22T15:49:00.504Z,10.57
2019-02-22T15:51:31.230Z,11.20
2019-02-22T15:54:01.586Z,9.43
2019-02-22T15:56:32.175Z,10.27
2019-02-22T15:59:02.527Z,10.37
2019-02-22T16:01:32.839Z,10.13
2019-02-22T16:04:14.018Z,12.70
2019-02-22T16:06:44.575Z,8.70
2019-02-22T16:09:15.461Z,8.47
2019-02-22T16:11:46.357Z,8.70
2019-02-22T16:14:16.628Z,6.63
2019-02-22T16:16:47.302Z,5.93
2019-02-22T16:19:17.882Z,4.47
2019-02-22T16:21:48.563Z,4.00
2019-02-22T16:24:18.980Z,5.00
2019-02-22T16:26:51.714Z,4.50
2019-02-22T16:29:21.975Z,3.33
2019-02-22T16:31:52.466Z,4.37
2019-02-22T16:34:23.108Z,4.47
2019-02-22T16:36:53.407Z,4.47
2019-02-22T16:39:24.074Z,3.47
2019-02-22T16:41:54.342Z,4.80
2019-02-22T16:44:24.830Z,6.13
2019-02-22T16:46:57.680Z,4.40
2019-02-22T16:49:28.676Z,3.03
2019-02-22T16:51:59.089Z,4.40
2019-02-22T16:54:29.712Z,5.60
2019-02-22T16:57:00.185Z,4.77
2019-02-22T16:59:33.452Z,5.87
2019-02-22T17:02:04.102Z,7.20
2019-02-22T17:04:34.572Z,8.10
2019-02-22T17:07:05.294Z,7.40
2019-02-22T17:09:35.958Z,5.70
2019-02-22T17:12:07.017Z,4.83
2019-02-22T17:14:37.242Z,6.73
2019-02-22T17:17:07.900Z,4.50
2019-02-22T17:19:38.489Z,5.43
2019-02-22T17:22:09.793Z,7.10
2019-02-22T17:24:40.383Z,6.10
2019-02-22T17:27:10.952Z,5.13
2019-02-22T17:29:41.215Z,7.43
2019-02-22T17:32:11.539Z,6.17
2019-02-22T17:34:42.219Z,6.50
2019-02-22T17:37:12.525Z,10.03
2019-02-22T17:39:42.793Z,4.77
2019-02-22T17:42:13.501Z,5.43
2019-02-22T17:44:43.986Z,8.17
2019-02-22T17:47:14.841Z,9.30
2019-02-22T17:49:45.126Z,14.23
2019-02-22T17:52:15.412Z,7.03
2019-02-22T17:54:46.074Z,7.37
2019-02-22T17:57:16.351Z,7.90
2019-02-22T17:59:46.669Z,7.70
2019-02-22T18:02:17.393Z,6.30
2019-02-22T18:04:47.859Z,8.70
2019-02-22T18:07:18.119Z,8.13
2019-02-22T18:09:48.803Z,8.80
2019-02-22T18:12:19.153Z,9.80
2019-02-22T18:14:49.609Z,10.97
2019-02-22T18:17:19.920Z,9.63
2019-02-22T18:19:50.223Z,8.90
2019-02-22T18:22:25.715Z,11.40
2019-02-22T18:24:53.079Z,16.93
2019-02-22T18:27:23.399Z,13.80
2019-02-22T18:29:54.207Z,13.83
2019-02-22T18:32:24.915Z,9.63
2019-02-22T18:34:56.194Z,11.93
2019-02-22T18:37:26.867Z,11.27
2019-02-22T18:39:57.316Z,12.23
2019-02-22T18:42:27.586Z,10.60
2019-02-22T18:44:58.007Z,10.87
2019-02-22T18:47:28.365Z,10.53
2019-02-22T18:49:59.104Z,12.13
2019-02-22T18:52:29.723Z,12.73
2019-02-22T18:55:00.047Z,13.30
2019-02-22T18:57:30.693Z,14.80
2019-02-22T19:00:01.370Z,21.60
2019-02-22T19:02:33.353Z,15.40
2019-02-22T19:05:03.700Z,15.43
2019-02-22T19:07:34.168Z,17.13
2019-02-22T19:10:04.665Z,14.17
2019-02-22T19:12:35.158Z,15.80
2019-02-22T19:15:06.381Z,18.77
2019-02-22T19:17:36.762Z,18.53
2019-02-22T19:20:08.960Z,18.30
2019-02-22T19:22:39.389Z,20.23
2019-02-22T19:25:09.965Z,20.30
2019-02-22T19:27:40.775Z,19.90
2019-02-22T19:30:13.609Z,16.23
2019-02-22T19:32:43.932Z,18.20
2019-02-22T19:35:14.417Z,20.87
2019-02-22T19:37:44.916Z,16.03
2019-02-22T19:40:17.458Z,19.60
2019-02-22T19:42:48.222Z,19.07
2019-02-22T19:45:18.698Z,22.37
2019-02-22T19:47:49.013Z,22.87
2019-02-22T19:50:19.705Z,24.50
2019-02-22T19:52:50.035Z,20.90
2019-02-22T19:55:20.868Z,22.43
2019-02-22T19:57:51.177Z,20.53
2019-02-22T20:00:21.449Z,20.13
2019-02-22T20:02:52.388Z,18.23
2019-02-22T20:05:22.837Z,18.13
2019-02-22T20:07:53.150Z,17.57
2019-02-22T20:10:25.035Z,18.90
2019-02-22T20:12:55.601Z,14.70
2019-02-22T20:15:25.911Z,15.43
2019-02-22T20:17:56.660Z,16.73
2019-02-22T20:20:27.543Z,13.60
2019-02-22T20:22:57.893Z,14.83
2019-02-22T20:25:28.338Z,13.03
2019-02-22T20:27:58.720Z,15.43
2019-02-22T20:30:29.518Z,13.70
2019-02-22T20:33:00.288Z,10.80
2019-02-22T20:35:30.647Z,11.87
2019-02-22T20:38:01.272Z,13.10
2019-02-22T20:40:31.957Z,11.10
2019-02-22T20:43:02.286Z,11.70
2019-02-22T20:45:33.065Z,12.40
2019-02-22T20:48:05.458Z,12.03
2019-02-22T20:50:35.631Z,14.13
2019-02-22T20:53:05.997Z,12.03
2019-02-22T20:55:36.343Z,11.57
2019-02-22T20:58:06.770Z,10.50
2019-02-22T21:00:37.164Z,10.60
2019-02-22T21:03:07.447Z,10.03
2019-02-22T21:05:37.962Z,10.93
2019-02-22T21:08:08.591Z,11.47
2019-02-22T21:10:39.913Z,9.77
2019-02-22T21:13:10.318Z,10.93
2019-02-22T21:15:40.830Z,9.93
2019-02-22T21:18:16.213Z,9.37
2019-02-22T21:20:43.168Z,10.07
2019-02-22T21:23:13.755Z,7.33
2019-02-22T21:25:44.229Z,8.43
2019-02-22T21:28:14.544Z,8.37
2019-02-22T21:30:45.212Z,8.70
2019-02-22T21:33:15.975Z,7.63
2019-02-22T21:35:46.246Z,7.20
2019-02-22T21:38:16.940Z,8.40
2019-02-22T21:40:47.631Z,8.97
2019-02-22T21:43:18.008Z,8.77
2019-02-22T21:45:48.498Z,10.00
2019-02-22T21:48:27.184Z,7.70
2019-02-22T21:50:51.137Z,8.57
2019-02-22T21:53:21.450Z,10.43
2019-02-22T21:55:52.136Z,7.60
2019-02-22T21:58:22.480Z,10.20
2019-02-22T22:00:52.837Z,7.93
2019-02-22T22:03:24.199Z,7.90
2019-02-22T22:05:54.778Z,8.17
2019-02-22T22:08:25.447Z,7.70
2019-02-22T22:10:55.725Z,7.30
2019-02-22T22:13:26.250Z,7.03
2019-02-22T22:15:56.782Z,9.33
2019-02-22T22:18:38.253Z,13.30
2019-02-22T22:21:00.043Z,9.33
2019-02-22T22:23:30.575Z,6.37
2019-02-22T22:26:01.042Z,5.80
2019-02-22T22:28:31.337Z,4.93
2019-02-22T22:31:02.112Z,5.60
2019-02-22T22:33:32.419Z,5.17
2019-02-22T22:36:02.979Z,4.43
2019-02-22T22:38:33.291Z,5.73
2019-02-22T22:41:03.557Z,5.90
2019-02-22T22:43:34.211Z,8.00
2019-02-22T22:46:04.726Z,8.60
2019-02-22T22:48:35.036Z,6.43
2019-02-22T22:51:05.860Z,5.00
2019-02-22T22:53:36.511Z,4.83
2019-02-22T22:56:06.763Z,4.33
2019-02-22T22:58:37.169Z,3.87
2019-02-22T23:01:13.141Z,2.10
2019-02-22T23:03:43.628Z,1.43
2019-02-22T23:06:15.315Z,2.40
2019-02-22T23:08:45.701Z,3.00
2019-02-22T23:11:16.428Z,1.60
2019-02-22T23:13:47.310Z,2.80
2019-02-22T23:16:17.683Z,3.57
2019-02-22T23:18:48.563Z,4.27
2019-02-22T23:21:19.783Z,3.80
2019-02-22T23:23:50.090Z,5.87
2019-02-22T23:26:20.505Z,5.83
2019-02-22T23:28:51.217Z,7.30
2019-02-22T23:31:21.482Z,4.80
2019-02-22T23:33:51.791Z,3.13
2019-02-22T23:36:22.325Z,4.93
2019-02-22T23:38:53.896Z,3.03
2019-02-22T23:41:24.570Z,2.07
2019-02-22T23:43:54.829Z,4.67
2019-02-22T23:46:25.340Z,2.60
2019-02-22T23:48:56.058Z,3.20
2019-02-22T23:51:26.314Z,2.10
2019-02-22T23:53:56.629Z,1.50
2019-02-22T23:56:27.338Z,1.20
2019-02-22T23:58:57.635Z,2.17
